Time;durP1;ratioP1;P1;durP2;ratioP2;P2;SDS_P1;SDS_P2;PMS_P1;PMS_P2;Temp;Humidity;BMP_temperature;BMP_pressure;BME280_temperature;BME280_humidity;BME280_pressure;Samples;Min_cycle;Max_cycle;Signal;HPM_P1;HPM_P2
2023/07/14 00:03:30;;;;;;;;;;;;;;;18.45;60.84;100014.72;12227234;19;19918;-79
2023/07/14 00:07:33;;;;;;;;;;;;;;;18.42;61.20;100009.75;12223392;19;19911;-78
2023/07/14 00:11:35;;;;;;;;;;;;;;;18.37;61.26;100004.22;12197944;19;19910;-79
2023/07/14 00:15:37;;;;;;;;;;;;;;;18.29;61.66;100002.06;12221109;19;19921;-79
2023/07/14 00:19:39;;;;;;;;;;;;;;;18.26;61.80;100003.50;12221414;19;20012;-79
2023/07/14 00:23:41;;;;;;;;;;;;;;;18.25;62.21;99999.06;12199986;19;20292;-79
2023/07/14 00:27:43;;;;;;;;;;;;;;;18.24;62.17;99991.00;12219754;19;19927;-79
2023/07/14 00:31:45;;;;;;;;;;;;;;;18.20;62.66;99991.59;12229610;19;19910;-80
2023/07/14 00:35:47;;;;;;;;;;;;;;;18.17;62.40;99981.03;12205218;19;19925;-79
2023/07/14 00:39:49;;;;;;;;;;;;;;;18.13;62.44;99979.94;12223576;19;19915;-80
2023/07/14 00:43:51;;;;;;;;;;;;;;;18.12;62.49;99991.41;12223164;19;20318;-80
2023/07/14 00:47:57;;;;;;;;;;;;;;;18.15;62.80;99997.22;12202313;19;19918;-78
2023/07/14 00:52:03;;;;;;;;;;;;;;;18.16;63.35;99984.09;12224229;19;19915;-80
2023/07/14 00:56:08;;;;;;;;;;;;;;;18.20;62.92;99990.72;12223041;19;19931;-78
2023/07/14 01:00:20;;;;;;;;;;;;;;;18.21;62.74;99989.63;12196778;19;19917;-79
2023/07/14 01:04:22;;;;;;;;;;;;;;;18.26;63.05;99981.19;12219373;19;19978;-81
2023/07/14 01:08:23;;;;;;;;;;;;;;;18.30;62.98;99973.06;12196184;19;19915;-79
2023/07/14 01:12:28;;;;;;;;;;;;;;;18.32;63.02;99979.16;12214323;19;19942;-79
2023/07/14 01:16:32;;;;;;;;;;;;;;;18.36;63.22;99977.47;12219738;19;19907;-79
2023/07/14 01:20:37;;;;;;;;;;;;;;;18.39;63.67;99974.06;12196826;19;19910;-79
2023/07/14 01:24:43;;;;;;;;;;;;;;;18.41;63.41;99966.22;12215603;19;19978;-79
2023/07/14 01:28:46;;;;;;;;;;;;;;;18.41;63.34;99969.00;12214928;19;20223;-79
2023/07/14 01:32:49;;;;;;;;;;;;;;;18.38;63.87;99967.66;12195442;19;19915;-79
2023/07/14 01:36:58;;;;;;;;;;;;;;;18.37;63.91;99973.53;12214938;19;19914;-79
2023/07/14 01:41:00;;;;;;;;;;;;;;;18.37;63.53;99973.53;12214217;19;20253;-79
2023/07/14 01:45:02;;;;;;;;;;;;;;;18.37;63.92;99963.19;12186554;19;20380;-79
2023/07/14 01:49:13;;;;;;;;;;;;;;;18.36;63.01;99974.66;12214630;19;20314;-79
2023/07/14 01:53:27;;;;;;;;;;;;;;;18.34;63.75;99972.16;12192764;19;19930;-78
2023/07/14 01:57:30;;;;;;;;;;;;;;;18.33;63.60;99972.47;12215533;19;20354;-78
2023/07/14 02:01:32;;;;;;;;;;;;;;;18.27;64.05;99971.72;12215054;19;20240;-79
2023/07/14 02:05:36;;;;;;;;;;;;;;;18.22;63.71;99968.97;12193209;19;20237;-80
2023/07/14 02:09:39;;;;;;;;;;;;;;;18.17;64.56;99960.66;12210785;19;19944;-79
2023/07/14 02:13:41;;;;;;;;;;;;;;;18.12;64.38;99967.13;12214863;19;19915;-79
2023/07/14 02:17:43;;;;;;;;;;;;;;;18.07;65.04;99969.97;12192899;19;19992;-79
2023/07/14 02:21:46;;;;;;;;;;;;;;;18.01;64.81;99971.16;12216207;19;19932;-78
2023/07/14 02:25:53;;;;;;;;;;;;;;;17.98;64.82;99972.56;12217059;19;20279;-80
2023/07/14 02:30:09;;;;;;;;;;;;;;;17.94;65.17;99960.34;12218378;19;20016;-78
2023/07/14 02:34:12;;;;;;;;;;;;;;;17.89;65.15;99962.38;12213487;19;19914;-80
2023/07/14 02:38:15;;;;;;;;;;;;;;;17.80;65.47;99961.34;12216158;19;20249;-78
2023/07/14 02:42:16;;;;;;;;;;;;;;;17.71;66.28;99956.38;12216889;19;20337;-79
2023/07/14 02:46:21;;;;;;;;;;;;;;;17.61;66.35;99950.06;12191672;19;20349;-80
2023/07/14 02:50:22;;;;;;;;;;;;;;;17.48;67.35;99948.78;12211162;19;19914;-79
2023/07/14 02:54:25;;;;;;;;;;;;;;;17.33;67.86;99949.75;12216910;19;19914;-78
2023/07/14 02:58:27;;;;;;;;;;;;;;;17.17;69.30;99942.66;12190505;19;19940;-79
2023/07/14 03:02:29;;;;;;;;;;;;;;;17.07;69.44;99936.06;12215451;19;19974;-79
2023/07/14 03:06:31;;;;;;;;;;;;;;;16.99;70.25;99944.19;12214822;19;19931;-79
2023/07/14 03:10:33;;;;;;;;;;;;;;;16.93;70.77;99946.19;12189667;19;19919;-79
2023/07/14 03:14:35;;;;;;;;;;;;;;;16.90;70.81;99951.50;12215974;19;19934;-78
2023/07/14 03:18:37;;;;;;;;;;;;;;;16.85;71.61;99949.56;12216847;19;19911;-78
2023/07/14 03:22:52;;;;;;;;;;;;;;;16.82;71.76;99948.19;12235977;19;19899;-80
2023/07/14 03:26:54;;;;;;;;;;;;;;;16.83;72.53;99952.63;12280745;19;19942;-81
2023/07/14 03:30:56;;;;;;;;;;;;;;;16.83;72.65;99954.56;12254359;19;19918;-81
2023/07/14 03:34:58;;;;;;;;;;;;;;;16.83;73.01;99949.84;12250279;19;19911;-80
2023/07/14 03:39:18;;;;;;;;;;;;;;;16.87;73.50;99950.13;12229700;19;19906;-78
2023/07/14 03:43:19;;;;;;;;;;;;;;;16.91;73.68;99947.56;12206919;19;19934;-79
2023/07/14 03:47:21;;;;;;;;;;;;;;;16.94;73.51;99947.00;12228139;19;19914;-79
2023/07/14 03:51:23;;;;;;;;;;;;;;;16.96;73.84;99945.59;12225260;19;19919;-79
2023/07/14 03:55:24;;;;;;;;;;;;;;;17.00;74.05;99946.66;12208194;19;19915;-79
2023/07/14 03:59:27;;;;;;;;;;;;;;;17.03;74.26;99953.63;12224257;19;19926;-79
2023/07/14 04:03:29;;;;;;;;;;;;;;;17.05;74.50;99937.47;12225675;19;19918;-79
2023/07/14 04:07:32;;;;;;;;;;;;;;;17.14;74.07;99952.41;12202341;19;19911;-80
2023/07/14 04:11:34;;;;;;;;;;;;;;;17.18;73.83;99947.94;12221587;19;19907;-78
2023/07/14 04:15:37;;;;;;;;;;;;;;;17.23;74.45;99945.09;12218508;19;19934;-79
2023/07/14 04:19:38;;;;;;;;;;;;;;;17.25;74.89;99936.44;12198028;19;19923;-79
2023/07/14 04:23:41;;;;;;;;;;;;;;;17.25;74.80;99942.03;12221536;19;20026;-79
2023/07/14 04:27:42;;;;;;;;;;;;;;;17.23;75.24;99939.53;12219465;19;19915;-81
2023/07/14 04:31:44;;;;;;;;;;;;;;;17.18;75.39;99933.19;12195120;19;19918;-78
2023/07/14 04:35:46;;;;;;;;;;;;;;;17.15;76.08;99931.81;12220340;19;19917;-79
2023/07/14 04:39:48;;;;;;;;;;;;;;;17.19;76.44;99927.34;12244573;19;19923;-79
2023/07/14 04:43:49;;;;;;;;;;;;;;;17.35;76.63;99928.03;12223917;19;19914;-80
2023/07/14 04:47:52;;;;;;;;;;;;;;;17.50;76.47;99924.25;12238342;19;19918;-79
2023/07/14 04:51:53;;;;;;;;;;;;;;;17.64;76.94;99925.25;12219164;19;20333;-79
2023/07/14 04:55:55;;;;;;;;;;;;;;;17.71;76.45;99922.94;12195402;19;19919;-79
2023/07/14 04:59:58;;;;;;;;;;;;;;;17.84;76.21;99921.44;12219263;19;19974;-79
2023/07/14 05:04:02;;;;;;;;;;;;;;;17.97;76.12;99922.69;12217861;19;19918;-81
2023/07/14 05:08:04;;;;;;;;;;;;;;;18.09;75.12;99925.91;12194919;19;19914;-81
2023/07/14 05:12:07;;;;;;;;;;;;;;;18.19;75.34;99917.41;12210240;19;19939;-79
2023/07/14 05:16:08;;;;;;;;;;;;;;;18.36;75.03;99919.69;12208397;19;19914;-79
2023/07/14 05:20:12;;;;;;;;;;;;;;;18.49;74.50;99908.94;12201318;19;19915;-80
2023/07/14 05:24:14;;;;;;;;;;;;;;;18.63;72.84;99918.22;12219311;19;19918;-79
2023/07/14 05:28:16;;;;;;;;;;;;;;;18.86;72.38;99919.31;12216423;19;19924;-80
2023/07/14 05:32:18;;;;;;;;;;;;;;;19.04;71.56;99909.28;12194005;19;20448;-78
2023/07/14 05:36:20;;;;;;;;;;;;;;;19.21;71.00;99911.50;12189435;19;19918;-81
2023/07/14 05:40:22;;;;;;;;;;;;;;;19.38;70.91;99906.16;12221030;19;19919;-79
2023/07/14 05:44:24;;;;;;;;;;;;;;;19.46;70.19;99905.47;12186958;19;19919;-78
2023/07/14 05:48:26;;;;;;;;;;;;;;;19.57;69.51;99904.16;12219750;19;19918;-80
2023/07/14 05:52:28;;;;;;;;;;;;;;;19.66;68.36;99911.84;12220224;19;19978;-80
2023/07/14 05:56:30;;;;;;;;;;;;;;;19.72;68.34;99902.22;12196223;19;20322;-79
2023/07/14 06:00:38;;;;;;;;;;;;;;;19.81;68.10;99906.00;12216937;19;20280;-79
2023/07/14 06:04:41;;;;;;;;;;;;;;;19.90;67.27;99901.34;12219109;19;21535;-78
2023/07/14 06:08:45;;;;;;;;;;;;;;;19.93;67.46;99905.44;12243820;19;19926;-80
2023/07/14 06:12:46;;;;;;;;;;;;;;;20.00;67.68;99908.69;12239813;19;19911;-78
2023/07/14 06:16:48;;;;;;;;;;;;;;;20.08;66.02;99899.56;12244504;19;19941;-78
2023/07/14 06:20:50;;;;;;;;;;;;;;;20.06;66.42;99896.25;12242345;19;20260;-79
2023/07/14 06:24:52;;;;;;;;;;;;;;;20.06;65.75;99903.81;12237921;19;20333;-78
2023/07/14 06:28:53;;;;;;;;;;;;;;;20.17;65.64;99894.09;12240118;19;19911;-80
2023/07/14 06:32:55;;;;;;;;;;;;;;;20.25;65.34;99893.31;12243033;19;20325;-78
2023/07/14 06:36:57;;;;;;;;;;;;;;;20.26;64.85;99889.41;12240401;19;19935;-78
2023/07/14 06:41:00;;;;;;;;;;;;;;;20.32;65.06;99885.34;12239364;19;19952;-79
2023/07/14 06:45:03;;;;;;;;;;;;;;;20.45;64.11;99880.88;12238130;19;19919;-79
2023/07/14 06:49:05;;;;;;;;;;;;;;;20.59;63.07;99886.47;12206151;19;20321;-80
2023/07/14 06:53:21;;;;;;;;;;;;;;;20.74;61.98;99888.09;12235258;19;19922;-79
2023/07/14 06:57:23;;;;;;;;;;;;;;;21.01;61.67;99884.38;12187648;19;19930;-78
2023/07/14 07:01:25;;;;;;;;;;;;;;;21.22;60.19;99879.91;12215989;19;19928;-79
2023/07/14 07:05:26;;;;;;;;;;;;;;;21.30;58.71;99881.94;12210978;19;20230;-78
2023/07/14 07:09:28;;;;;;;;;;;;;;;21.26;58.47;99874.47;12191342;19;19934;-79
2023/07/14 07:13:30;;;;;;;;;;;;;;;21.21;58.75;99874.59;12238379;19;19915;-78
2023/07/14 07:17:32;;;;;;;;;;;;;;;21.31;57.67;99880.78;12240358;19;19903;-78
2023/07/14 07:21:34;;;;;;;;;;;;;;;21.44;56.36;99878.25;12235240;19;19911;-80
2023/07/14 07:25:36;;;;;;;;;;;;;;;21.73;56.05;99884.19;12235390;19;19919;-79
2023/07/14 07:29:44;;;;;;;;;;;;;;;21.95;56.03;99871.22;12242108;19;19919;-79
2023/07/14 07:33:46;;;;;;;;;;;;;;;22.11;54.44;99861.22;12241506;19;20254;-79
2023/07/14 07:37:47;;;;;;;;;;;;;;;22.15;54.78;99851.00;12241318;19;19911;-79
2023/07/14 07:41:49;;;;;;;;;;;;;;;22.35;55.71;99852.41;12236104;19;19926;-80
2023/07/14 07:45:50;;;;;;;;;;;;;;;22.67;54.10;99848.31;12234243;19;19915;-78
2023/07/14 07:49:52;;;;;;;;;;;;;;;23.06;53.41;99837.25;12237964;19;19911;-80
2023/07/14 07:53:54;;;;;;;;;;;;;;;23.44;52.29;99837.34;12241887;19;19923;-78
2023/07/14 07:57:56;;;;;;;;;;;;;;;23.48;51.02;99840.28;12238945;19;19918;-80
2023/07/14 08:01:58;;;;;;;;;;;;;;;23.53;50.53;99831.66;12237921;19;19917;-80
2023/07/14 08:06:00;;;;;;;;;;;;;;;23.55;50.20;99826.53;12239030;19;19919;-78
2023/07/14 08:10:03;;;;;;;;;;;;;;;23.78;50.16;99829.94;12248550;19;19927;-79
2023/07/14 08:14:06;;;;;;;;;;;;;;;24.00;49.55;99818.41;12244933;19;20261;-80
2023/07/14 08:18:08;;;;;;;;;;;;;;;24.19;48.37;99823.59;12250306;19;19931;-78
2023/07/14 08:22:10;;;;;;;;;;;;;;;24.53;47.13;99816.09;12249285;19;19910;-79
2023/07/14 08:26:12;;;;;;;;;;;;;;;24.68;46.57;99820.28;12246696;19;19907;-78
2023/07/14 08:30:15;;;;;;;;;;;;;;;25.01;45.84;99815.50;12246952;19;19915;-80
2023/07/14 08:34:16;;;;;;;;;;;;;;;25.36;45.27;99809.53;12250061;19;19963;-78
2023/07/14 08:38:21;;;;;;;;;;;;;;;25.63;44.53;99807.22;12249853;19;20245;-79
2023/07/14 08:42:39;;;;;;;;;;;;;;;25.93;44.79;99796.56;12242064;19;20318;-80
2023/07/14 08:46:41;;;;;;;;;;;;;;;25.91;44.10;99798.94;12243390;19;19919;-79
2023/07/14 08:50:46;;;;;;;;;;;;;;;25.98;43.33;99809.63;12243544;19;20354;-78
2023/07/14 08:54:51;;;;;;;;;;;;;;;26.24;42.77;99810.06;12249564;19;19922;-78
2023/07/14 08:58:52;;;;;;;;;;;;;;;26.53;42.60;99796.84;12278910;19;19921;-81
2023/07/14 09:02:54;;;;;;;;;;;;;;;26.53;41.22;99796.84;12255916;19;19950;-80
2023/07/14 09:06:56;;;;;;;;;;;;;;;26.95;41.01;99799.28;12243926;19;19949;-80
2023/07/14 09:11:16;;;;;;;;;;;;;;;27.25;39.77;99792.09;12207906;19;19922;-78
2023/07/14 09:15:22;;;;;;;;;;;;;;;27.23;38.17;99799.31;12226548;19;19906;-79
2023/07/14 09:19:32;;;;;;;;;;;;;;;27.33;38.35;99792.28;12217711;19;19911;-80
2023/07/14 09:23:34;;;;;;;;;;;;;;;27.44;38.83;99787.72;12198180;19;20379;-80
2023/07/14 09:27:36;;;;;;;;;;;;;;;27.40;38.47;99775.50;12219818;19;19911;-81
2023/07/14 09:31:53;;;;;;;;;;;;;;;27.67;37.93;99780.25;12222498;19;19914;-80
2023/07/14 09:35:55;;;;;;;;;;;;;;;28.09;37.56;99764.69;12195714;19;19926;-78
2023/07/14 09:40:15;;;;;;;;;;;;;;;28.58;35.52;99765.00;12217985;19;19919;-79
2023/07/14 09:44:16;;;;;;;;;;;;;;;28.68;35.78;99757.13;12218039;19;19922;-80
2023/07/14 09:48:19;;;;;;;;;;;;;;;28.79;35.74;99760.97;12202801;19;19924;-79
2023/07/14 09:52:23;;;;;;;;;;;;;;;28.90;35.89;99756.34;12216696;19;19926;-79
2023/07/14 09:56:29;;;;;;;;;;;;;;;29.14;35.28;99751.56;12196996;19;19935;-79
2023/07/14 10:00:39;;;;;;;;;;;;;;;29.51;33.78;99741.28;12219978;19;19922;-80
2023/07/14 10:04:46;;;;;;;;;;;;;;;29.53;33.86;99732.38;12223955;19;20359;-78
2023/07/14 10:08:54;;;;;;;;;;;;;;;29.39;33.64;99740.66;12198048;19;19910;-80
2023/07/14 10:12:56;;;;;;;;;;;;;;;29.43;33.30;99745.22;12214852;19;19919;-78
2023/07/14 10:16:58;;;;;;;;;;;;;;;29.23;32.17;99740.78;12221402;19;20254;-80
2023/07/14 10:21:04;;;;;;;;;;;;;;;29.29;33.60;99730.75;12202228;19;19938;-81
2023/07/14 10:25:15;;;;;;;;;;;;;;;29.46;32.84;99733.09;12219270;19;19917;-80
2023/07/14 10:29:18;;;;;;;;;;;;;;;29.88;31.63;99737.84;12197277;19;19922;-79
2023/07/14 10:33:31;;;;;;;;;;;;;;;30.06;31.92;99725.94;12235482;19;19918;-80
2023/07/14 10:37:42;;;;;;;;;;;;;;;30.10;32.34;99729.66;12235198;19;20366;-80
2023/07/14 10:41:45;;;;;;;;;;;;;;;30.66;31.97;99723.91;12235010;19;19927;-80
2023/07/14 10:45:50;;;;;;;;;;;;;;;31.00;29.91;99714.59;12239075;19;19923;-81
2023/07/14 10:49:56;;;;;;;;;;;;;;;31.46;29.74;99691.47;12237331;19;19958;-82
2023/07/14 10:54:00;;;;;;;;;;;;;;;32.00;28.99;99704.88;12238322;19;20242;-80
2023/07/14 10:58:13;;;;;;;;;;;;;;;31.89;28.38;99683.22;12244246;19;19915;-80
2023/07/14 11:02:37;;;;;;;;;;;;;;;31.17;28.77;99693.19;12238669;19;19918;-80
2023/07/14 11:06:42;;;;;;;;;;;;;;;30.31;29.39;99697.88;12247784;19;19978;-81
2023/07/14 11:11:03;;;;;;;;;;;;;;;29.65;30.26;99697.31;12242488;19;19922;-79
2023/07/14 11:15:23;;;;;;;;;;;;;;;29.12;31.07;99689.53;12275514;19;19921;-83
2023/07/14 11:19:37;;;;;;;;;;;;;;;28.86;31.21;99695.91;12295164;19;19915;-83
2023/07/14 11:24:04;;;;;;;;;;;;;;;28.52;31.61;99689.97;12296837;19;19914;-83
2023/07/14 11:28:12;;;;;;;;;;;;;;;28.26;32.03;99706.78;12266918;19;19922;-79
2023/07/14 11:32:20;;;;;;;;;;;;;;;28.06;32.29;99692.63;12241813;19;20305;-81
2023/07/14 11:36:26;;;;;;;;;;;;;;;27.80;32.12;99684.72;12240640;19;19915;-81
2023/07/14 11:40:30;;;;;;;;;;;;;;;27.80;32.66;99658.44;12240474;19;19919;-80
2023/07/14 11:44:32;;;;;;;;;;;;;;;27.84;32.53;99648.00;12257497;19;19918;-80
2023/07/14 11:48:38;;;;;;;;;;;;;;;27.88;32.19;99635.56;12249580;19;20329;-80
2023/07/14 11:52:40;;;;;;;;;;;;;;;28.12;31.96;99625.97;12253440;19;19922;-81
2023/07/14 11:56:52;;;;;;;;;;;;;;;28.57;31.46;99624.47;12249723;19;19918;-80
2023/07/14 12:00:59;;;;;;;;;;;;;;;28.73;30.97;99638.53;12243947;19;19966;-82
2023/07/14 12:05:24;;;;;;;;;;;;;;;29.07;31.04;99653.78;12246063;19;19918;-80
2023/07/14 12:09:25;;;;;;;;;;;;;;;29.58;30.38;99640.41;12256668;19;19919;-81
2023/07/14 12:13:35;;;;;;;;;;;;;;;29.77;31.03;99622.44;12255634;19;19922;-82
2023/07/14 12:17:40;;;;;;;;;;;;;;;29.44;30.92;99618.28;12248400;19;19911;-79
2023/07/14 12:21:46;;;;;;;;;;;;;;;28.97;30.99;99617.50;12251230;19;19911;-81
2023/07/14 12:25:50;;;;;;;;;;;;;;;28.61;31.44;99602.66;12248232;19;20350;-84
2023/07/14 12:29:59;;;;;;;;;;;;;;;28.52;31.62;99568.09;12244757;19;19932;-80
2023/07/14 12:34:00;;;;;;;;;;;;;;;28.95;31.50;99492.28;12249883;19;19919;-79
2023/07/14 12:38:09;;;;;;;;;;;;;;;29.59;30.64;99514.28;12247440;19;19926;-81
2023/07/14 12:42:12;;;;;;;;;;;;;;;30.27;29.41;99552.09;12249319;19;19914;-81
2023/07/14 12:46:20;;;;;;;;;;;;;;;31.16;29.34;99558.63;12245170;19;19918;-81
2023/07/14 12:50:24;;;;;;;;;;;;;;;31.66;28.25;99541.06;12240593;19;19939;-81
2023/07/14 12:54:27;;;;;;;;;;;;;;;32.48;27.68;99527.13;12245033;19;19922;-81
2023/07/14 12:58:29;;;;;;;;;;;;;;;34.31;26.47;99516.16;12244332;19;19921;-81
2023/07/14 13:02:31;;;;;;;;;;;;;;;35.37;24.26;99513.69;12239639;19;19926;-82
2023/07/14 13:06:33;;;;;;;;;;;;;;;36.10;23.35;99505.84;12247076;19;19978;-82
2023/07/14 13:10:36;;;;;;;;;;;;;;;36.70;22.47;99511.94;12246773;19;19933;-85
2023/07/14 13:14:40;;;;;;;;;;;;;;;36.10;22.59;99507.91;12246944;19;19918;-82
2023/07/14 13:18:52;;;;;;;;;;;;;;;34.79;24.76;99506.84;12196438;19;20254;-83
2023/07/14 13:23:03;;;;;;;;;;;;;;;35.07;24.96;99499.25;12200833;19;19919;-81
2023/07/14 13:27:10;;;;;;;;;;;;;;;36.63;23.34;99486.25;12217467;19;19910;-81
2023/07/14 13:31:14;;;;;;;;;;;;;;;36.33;22.34;99472.75;12222004;19;19939;-83
2023/07/14 13:35:22;;;;;;;;;;;;;;;35.52;23.88;99444.75;12201950;19;19914;-82
2023/07/14 13:39:26;;;;;;;;;;;;;;;37.25;22.00;99432.22;12221260;19;19915;-82
2023/07/14 13:43:28;;;;;;;;;;;;;;;38.24;20.64;99422.69;12201615;19;19929;-82
2023/07/14 13:47:40;;;;;;;;;;;;;;;38.46;21.31;99402.81;12223654;19;19907;-81
2023/07/14 13:51:42;;;;;;;;;;;;;;;38.99;19.82;99397.75;12219847;19;20345;-82
2023/07/14 13:55:43;;;;;;;;;;;;;;;39.59;19.62;99385.72;12200514;19;19939;-82
2023/07/14 13:59:45;;;;;;;;;;;;;;;39.87;19.01;99410.03;12221335;19;19925;-81
2023/07/14 14:03:49;;;;;;;;;;;;;;;40.13;18.96;99410.00;12224662;19;19918;-80
2023/07/14 14:07:52;;;;;;;;;;;;;;;40.93;19.06;99413.53;12207521;19;19945;-82
2023/07/14 14:15:22;;;;;;;;;;;;;;;41.73;18.04;99391.16;12235857;19;19922;-82
2023/07/14 14:19:24;;;;;;;;;;;;;;;41.82;17.76;99394.91;12255943;19;19915;-81
2023/07/14 14:23:27;;;;;;;;;;;;;;;42.26;17.56;99389.00;12281244;19;19978;-83
2023/07/14 14:27:29;;;;;;;;;;;;;;;42.53;17.40;99381.69;12282449;19;19922;-83
2023/07/14 14:31:31;;;;;;;;;;;;;;;42.79;17.13;99379.34;12180576;19;20354;-81
2023/07/14 14:35:35;;;;;;;;;;;;;;;42.84;16.64;99375.81;12287587;19;19918;-82
2023/07/14 14:39:38;;;;;;;;;;;;;;;41.11;17.50;99375.34;12286290;19;20009;-81
2023/07/14 14:43:40;;;;;;;;;;;;;;;41.53;17.08;99354.75;12268471;19;19915;-81
2023/07/14 14:47:41;;;;;;;;;;;;;;;41.13;17.40;99360.41;12288470;19;20004;-81
2023/07/14 14:51:47;;;;;;;;;;;;;;;39.79;18.22;99343.09;12293705;19;19907;-80
2023/07/14 14:55:50;;;;;;;;;;;;;;;38.40;18.87;99341.31;12282782;19;19919;-82
2023/07/14 14:59:51;;;;;;;;;;;;;;;37.84;19.47;99330.75;12282556;19;19903;-82
2023/07/14 15:03:53;;;;;;;;;;;;;;;36.81;19.90;99336.66;12278117;19;19923;-81
2023/07/14 15:07:56;;;;;;;;;;;;;;;36.51;20.51;99332.66;12264251;19;19906;-81
2023/07/14 15:11:57;;;;;;;;;;;;;;;36.73;20.31;99331.03;12277702;19;19915;-82
2023/07/14 15:16:00;;;;;;;;;;;;;;;36.34;20.19;99333.81;12276093;19;20313;-81
2023/07/14 15:20:02;;;;;;;;;;;;;;;35.72;20.80;99324.53;12258703;19;19918;-81
2023/07/14 15:24:04;;;;;;;;;;;;;;;36.46;20.27;99319.63;12240519;19;20649;-81
2023/07/14 15:31:25;;;;;;;5.45;2.75;;;;;;;36.02;20.96;99295.81;12265002;19;20760;-81
2023/07/14 15:35:30;;;;;;;3.55;2.33;;;;;;;34.78;21.88;99290.56;12261082;19;20798;-82
2023/07/14 15:39:48;;;;;;;7.47;2.87;;;;;;;33.54;22.84;99284.72;12278111;19;20709;-81
2023/07/14 15:43:50;;;;;;;5.75;2.90;;;;;;;32.95;23.59;99281.72;12256004;19;20275;-81
2023/07/14 15:47:54;;;;;;;6.00;2.55;;;;;;;32.52;24.11;99274.16;12280847;19;20006;-81
2023/07/14 15:51:59;;;;;;;7.38;2.10;;;;;;;32.12;24.27;99269.69;12280056;19;20014;-82
2023/07/14 15:56:03;;;;;;;4.22;2.20;;;;;;;31.85;24.42;99261.53;12254573;19;20010;-81
2023/07/14 16:00:14;;;;;;;3.78;1.90;;;;;;;31.48;24.74;99257.06;12279494;19;20046;-82
2023/07/14 16:04:16;;;;;;;3.70;1.70;;;;;;;31.09;25.31;99243.53;12278393;19;20022;-81
2023/07/14 16:08:31;;;;;;;5.65;1.98;;;;;;;30.73;25.40;99233.19;12255992;19;20063;-81
2023/07/14 16:12:34;;;;;;;3.78;1.80;;;;;;;30.43;25.96;99228.63;12274714;19;20014;-81
2023/07/14 16:16:36;;;;;;;4.28;2.03;;;;;;;30.35;25.98;99219.22;12260257;19;20006;-79
2023/07/14 16:20:39;;;;;;;;;;;;;;;30.27;25.73;99211.88;12287493;19;20143;-81
2023/07/14 16:24:44;;;;;;;3.35;1.92;;;;;;;30.27;25.66;99194.00;12275266;19;19934;-81
2023/07/14 16:28:46;;;;;;;4.63;1.75;;;;;;;30.20;25.96;99204.13;12252101;19;20042;-81
2023/07/14 16:32:49;;;;;;;5.30;1.73;;;;;;;30.15;25.98;99195.13;12273902;19;20040;-81
2023/07/14 16:36:50;;;;;;;6.47;1.83;;;;;;;30.03;26.27;99199.13;12277499;19;20098;-81
2023/07/14 16:40:52;;;;;;;3.53;1.85;;;;;;;29.94;25.95;99188.09;12228196;19;20014;-80
2023/07/14 16:44:54;;;;;;;3.75;2.10;;;;;;;29.86;26.20;99177.09;12253491;19;20025;-81
2023/07/14 16:48:59;;;;;;;4.47;1.70;;;;;;;29.81;26.04;99171.78;12240805;19;20010;-81
2023/07/14 16:53:01;;;;;;;;;;;;;;;29.80;26.10;99170.94;12208194;19;20045;-81
2023/07/14 16:57:24;;;;;;;4.28;2.22;;;;;;;29.82;25.44;99159.22;12226962;19;19924;-81
2023/07/14 17:01:26;;;;;;;4.18;2.30;;;;;;;29.68;25.59;99157.88;12206464;19;20487;-81
2023/07/14 17:05:32;;;;;;;3.15;1.77;;;;;;;29.59;25.25;99159.41;12226721;19;20007;-80
2023/07/14 17:09:34;;;;;;;5.63;1.98;;;;;;;29.50;25.45;99154.88;12224945;19;20018;-80
2023/07/14 17:13:42;;;;;;;3.72;2.30;;;;;;;29.41;25.53;99153.59;12203446;19;20341;-81
2023/07/14 17:17:45;;;;;;;4.03;2.13;;;;;;;29.38;25.56;99143.03;12224478;19;20006;-81
2023/07/14 17:21:54;;;;;;;7.22;1.67;;;;;;;29.28;25.89;99142.56;12224189;19;20004;-81
2023/07/14 17:25:57;;;;;;;4.13;1.98;;;;;;;29.23;26.33;99142.09;12199646;19;20006;-83
2023/07/14 17:29:59;;;;;;;5.43;1.75;;;;;;;29.08;25.87;99139.13;12222635;19;20078;-82
2023/07/14 17:34:02;;;;;;;4.93;1.95;;;;;;;29.05;25.77;99139.91;12220708;19;20007;-82
2023/07/14 17:38:04;;;;;;;3.92;1.90;;;;;;;29.10;26.46;99133.06;12197801;19;20015;-81
2023/07/14 17:42:13;;;;;;;;;;;;;;;29.09;26.46;99131.44;12219493;19;20098;-82
2023/07/14 17:46:15;;;;;;;5.95;1.60;;;;;;;28.96;26.94;99128.03;12222380;19;19914;-82
2023/07/14 17:50:19;;;;;;;3.45;1.70;;;;;;;28.76;26.58;99132.28;12196619;19;20421;-82
2023/07/14 17:54:30;;;;;;;3.17;1.80;;;;;;;28.54;27.08;99132.06;12214405;19;20701;-81
2023/07/14 17:58:32;;;;;;;3.78;1.83;;;;;;;28.31;27.57;99126.47;12196298;19;20014;-82
2023/07/14 18:02:37;;;;;;;3.85;1.80;;;;;;;28.25;27.83;99130.03;12216098;19;20010;-81
2023/07/14 18:06:41;;;;;;;3.95;2.10;;;;;;;28.16;27.91;99131.16;12214642;19;20007;-81
2023/07/14 18:10:47;;;;;;;4.10;1.90;;;;;;;27.99;28.58;99134.59;12197875;19;20428;-81
2023/07/14 18:14:49;;;;;;;3.00;1.63;;;;;;;27.81;29.35;99136.31;12215410;19;20010;-80
2023/07/14 18:18:50;;;;;;;7.28;2.15;;;;;;;27.58;29.80;99130.72;12218643;19;20027;-81
2023/07/14 18:22:54;;;;;;;5.93;2.05;;;;;;;27.30;30.35;99139.53;12201340;19;20006;-79
2023/07/14 18:26:56;;;;;;;6.63;1.80;;;;;;;26.98;31.16;99134.09;12220891;19;20545;-79
2023/07/14 18:30:59;;;;;;;3.85;1.83;;;;;;;26.77;31.26;99134.53;12219056;19;20011;-79
2023/07/14 18:35:02;;;;;;;4.88;1.58;;;;;;;26.65;31.84;99141.16;12197589;19;20014;-79
2023/07/14 18:39:04;;;;;;;5.72;2.20;;;;;;;26.53;32.51;99136.53;12217036;19;20006;-79
2023/07/14 18:43:19;;;;;;;4.15;1.83;;;;;;;26.34;32.69;99136.50;12216872;19;20015;-77
2023/07/14 18:47:21;;;;;;;5.60;1.80;;;;;;;26.12;33.58;99146.53;12195944;19;20006;-78
2023/07/14 18:51:30;;;;;;;5.53;1.70;;;;;;;26.00;33.76;99152.28;12213571;19;20006;-79
2023/07/14 18:55:32;;;;;;;4.53;1.80;;;;;;;25.89;34.08;99147.22;12189623;19;20026;-79
2023/07/14 18:59:35;;;;;;;3.60;1.70;;;;;;;25.76;34.61;99140.06;12215245;19;20391;-79
2023/07/14 19:03:38;;;;;;;4.70;1.65;;;;;;;25.56;35.36;99142.00;12213368;19;20015;-78
2023/07/14 19:07:46;;;;;;;4.35;1.92;;;;;;;25.36;35.51;99140.31;12190250;19;20472;-79
2023/07/14 19:11:57;;;;;;;5.88;1.85;;;;;;;25.10;36.20;99147.28;12215735;19;20010;-79
2023/07/14 19:15:59;;;;;;;5.85;2.00;;;;;;;24.82;37.15;99140.91;12218895;19;20010;-81
2023/07/14 19:20:04;;;;;;;4.32;1.77;;;;;;;24.56;37.95;99139.38;12206526;19;20364;-86
2023/07/14 19:24:30;;;;;;;5.90;2.35;;;;;;;24.28;38.65;99136.56;12276058;19;20007;-86
2023/07/14 19:28:32;;;;;;;12.00;4.03;;;;;;;24.03;38.43;99139.44;12253840;19;20015;-85
2023/07/14 19:32:33;;;;;;;8.10;2.77;;;;;;;23.84;39.36;99139.28;12266922;19;20002;-85
2023/07/14 19:36:36;;;;;;;4.07;1.83;;;;;;;23.66;39.05;99142.31;12213767;19;20499;-81
2023/07/14 19:40:39;;;;;;;2.88;1.75;;;;;;;23.50;39.91;99132.97;12190995;19;20011;-79
2023/07/14 19:44:41;;;;;;;3.17;1.42;;;;;;;23.35;39.83;99140.13;12214292;19;20015;-78
2023/07/14 19:48:43;;;;;;;4.30;1.83;;;;;;;23.23;40.13;99133.66;12213071;19;20010;-81
2023/07/14 19:52:46;;;;;;;7.00;1.92;;;;;;;23.11;40.92;99143.75;12192703;19;20010;-82
2023/07/14 19:56:48;;;;;;;4.97;1.52;;;;;;;23.01;41.40;99132.94;12214947;19;20006;-80
2023/07/14 20:00:59;;;;;;;5.28;1.95;;;;;;;23.00;41.54;99134.13;12215105;19;20026;-81
2023/07/14 20:05:02;;;;;;;4.63;1.70;;;;;;;23.04;41.39;99137.84;12195122;19;20022;-81
2023/07/14 20:09:06;;;;;;;7.75;1.90;;;;;;;23.11;41.34;99128.84;12214351;19;20420;-82
2023/07/14 20:13:37;;;;;;;4.07;2.33;;;;;;;23.20;41.29;99132.38;12213794;19;20010;-81
2023/07/14 20:17:39;;;;;;;6.30;2.00;;;;;;;23.28;40.79;99125.00;12202230;19;20022;-80
2023/07/14 20:21:41;;;;;;;4.93;1.85;;;;;;;23.37;40.90;99128.50;12226467;19;20006;-82
2023/07/14 20:25:43;;;;;;;4.77;1.97;;;;;;;23.43;40.89;99135.53;12206322;19;20347;-80
2023/07/14 20:29:45;;;;;;;4.83;1.77;;;;;;;23.46;40.72;99129.19;12228374;19;20457;-79
2023/07/14 20:33:49;;;;;;;3.88;1.70;;;;;;;23.45;40.99;99129.56;12226477;19;20011;-79